createdAt,value
2022-08-20T00:00:31.742Z,24.07
2022-08-20T00:03:04.604Z,24.13
2022-08-20T00:05:35.695Z,24.31
2022-08-20T00:08:04.107Z,24.42
2022-08-20T00:10:33.415Z,24.38
2022-08-20T00:13:00.277Z,24.41
2022-08-20T00:15:33.548Z,24.42
2022-08-20T00:18:00.115Z,24.39
2022-08-20T00:20:29.719Z,24.50
2022-08-20T00:22:57.418Z,24.47
2022-08-20T00:25:25.454Z,24.45
2022-08-20T00:27:52.138Z,24.41
2022-08-20T00:30:18.628Z,24.45
2022-08-20T00:32:48.330Z,24.43
2022-08-20T00:35:16.585Z,24.38
2022-08-20T00:37:43.471Z,24.29
2022-08-20T00:40:22.258Z,24.16
2022-08-20T00:42:58.216Z,24.09
2022-08-20T00:45:27.166Z,24.04
2022-08-20T00:47:55.717Z,23.51
2022-08-20T00:50:34.351Z,23.47
2022-08-20T00:53:02.731Z,23.45
2022-08-20T00:55:31.727Z,23.35
2022-08-20T00:58:01.975Z,23.38
2022-08-20T01:00:44.681Z,23.41
2022-08-20T01:03:13.285Z,23.28
2022-08-20T01:05:42.215Z,23.15
2022-08-20T01:08:09.344Z,23.14
2022-08-20T01:10:39.237Z,23.23
2022-08-20T01:13:13.582Z,23.23
2022-08-20T01:15:43.425Z,23.27
2022-08-20T01:18:25.193Z,23.36
2022-08-20T01:21:01.348Z,23.29
2022-08-20T01:23:40.565Z,23.14
2022-08-20T01:26:10.846Z,23.22
2022-08-20T01:28:52.901Z,23.27
2022-08-20T01:31:25.014Z,23.29
2022-08-20T01:33:53.085Z,23.18
2022-08-20T01:36:25.201Z,23.19
2022-08-20T01:38:54.537Z,23.12
2022-08-20T01:41:37.115Z,23.11
2022-08-20T01:44:04.048Z,23.05
2022-08-20T01:46:36.729Z,23.26
2022-08-20T01:49:13.666Z,23.13
2022-08-20T01:51:42.339Z,23.18
2022-08-20T01:54:09.032Z,23.09
2022-08-20T01:57:12.856Z,23.09
2022-08-20T01:59:39.582Z,22.75
2022-08-20T02:02:07.002Z,22.92
2022-08-20T02:04:34.441Z,22.96
2022-08-20T02:07:04.166Z,22.95
2022-08-20T02:09:35.553Z,23.04
2022-08-20T02:12:03.840Z,23.02
2022-08-20T02:14:30.770Z,23.22
2022-08-20T02:16:58.360Z,23.34
2022-08-20T02:19:38.685Z,23.33
2022-08-20T02:22:18.717Z,23.35
2022-08-20T02:24:45.204Z,23.50
2022-08-20T02:27:11.731Z,23.49
2022-08-20T02:29:38.254Z,23.16
2022-08-20T02:32:32.063Z,23.17
2022-08-20T02:34:52.878Z,23.12
2022-08-20T02:37:19.378Z,23.36
2022-08-20T02:39:46.849Z,23.36
2022-08-20T02:42:13.388Z,23.42
2022-08-20T02:44:39.916Z,23.27
2022-08-20T02:47:06.997Z,23.44
2022-08-20T02:49:34.943Z,23.51
2022-08-20T02:52:01.462Z,23.32
2022-08-20T02:54:29.295Z,23.30
2022-08-20T02:56:55.901Z,23.35
2022-08-20T02:59:22.463Z,23.50
2022-08-20T03:02:00.379Z,23.47
2022-08-20T03:04:28.722Z,23.42
2022-08-20T03:06:55.136Z,23.43
2022-08-20T03:09:21.609Z,23.37
2022-08-20T03:11:48.079Z,23.31
2022-08-20T03:14:14.731Z,23.39
2022-08-20T03:16:41.127Z,23.31
2022-08-20T03:19:08.480Z,23.37
2022-08-20T03:21:35.262Z,23.28
2022-08-20T03:24:01.732Z,23.23
2022-08-20T03:26:28.290Z,23.11
2022-08-20T03:28:54.717Z,23.12
2022-08-20T03:31:21.198Z,23.07
2022-08-20T03:33:52.931Z,23.19
2022-08-20T03:36:27.835Z,23.10
2022-08-20T03:38:59.863Z,23.15
2022-08-20T03:41:26.683Z,23.20
2022-08-20T03:43:53.218Z,23.23
2022-08-20T03:46:23.022Z,23.15
2022-08-20T03:48:56.593Z,23.14
2022-08-20T03:51:30.655Z,23.26
2022-08-20T03:53:57.172Z,23.31
2022-08-20T03:56:23.687Z,23.27
2022-08-20T03:58:50.314Z,23.31
2022-08-20T04:01:45.100Z,23.29
2022-08-20T04:04:03.370Z,23.29
2022-08-20T04:06:30.370Z,23.22
2022-08-20T04:08:57.379Z,23.24
2022-08-20T04:11:24.361Z,23.38
2022-08-20T04:13:51.242Z,23.36
2022-08-20T04:16:18.071Z,23.34
2022-08-20T04:18:58.648Z,23.51
2022-08-20T04:21:31.040Z,23.27
2022-08-20T04:24:00.466Z,23.19
2022-08-20T04:26:26.967Z,23.30
2022-08-20T04:28:55.418Z,23.38
2022-08-20T04:31:25.383Z,23.40
2022-08-20T04:33:52.398Z,23.33
2022-08-20T04:36:18.882Z,23.40
2022-08-20T04:38:50.683Z,23.54
2022-08-20T04:41:23.701Z,23.53
2022-08-20T04:43:54.686Z,23.59
2022-08-20T04:46:23.838Z,23.60
2022-08-20T04:48:50.788Z,23.62
2022-08-20T04:51:18.296Z,23.60
2022-08-20T04:53:52.145Z,23.23
2022-08-20T04:56:23.622Z,23.27
2022-08-20T04:58:51.110Z,23.28
2022-08-20T05:01:17.697Z,23.19
2022-08-20T05:03:44.222Z,23.16
2022-08-20T05:06:11.852Z,23.18
2022-08-20T05:08:38.636Z,23.14
2022-08-20T05:11:33.208Z,23.18
2022-08-20T05:13:53.591Z,23.38
2022-08-20T05:16:21.370Z,23.50
2022-08-20T05:18:50.467Z,23.45
2022-08-20T05:21:20.023Z,23.43
2022-08-20T05:23:46.606Z,23.49
2022-08-20T05:26:15.746Z,23.51
2022-08-20T05:28:47.239Z,23.49
2022-08-20T05:31:23.784Z,23.49
2022-08-20T05:33:59.321Z,23.58
2022-08-20T05:36:25.778Z,23.62
2022-08-20T05:38:53.853Z,23.69
2022-08-20T05:41:29.436Z,23.70
2022-08-20T05:43:59.439Z,23.72
2022-08-20T05:46:26.026Z,23.87
2022-08-20T05:48:52.649Z,23.96
2022-08-20T05:51:19.141Z,24.14
2022-08-20T05:53:45.798Z,24.25
2022-08-20T05:56:12.242Z,24.15
2022-08-20T05:58:39.059Z,24.25
2022-08-20T06:01:05.627Z,24.10
2022-08-20T06:03:50.680Z,24.11
2022-08-20T06:06:36.848Z,24.23
2022-08-20T06:09:04.210Z,24.21
2022-08-20T06:11:35.036Z,24.20
2022-08-20T06:14:03.609Z,24.26
2022-08-20T06:16:30.268Z,24.36
2022-08-20T06:18:58.577Z,24.72
2022-08-20T06:21:25.489Z,24.95
2022-08-20T06:23:57.245Z,25.08
2022-08-20T06:26:29.697Z,24.94
2022-08-20T06:28:57.205Z,24.71
2022-08-20T06:31:23.712Z,24.75
2022-08-20T06:33:50.132Z,24.75
2022-08-20T06:36:18.881Z,24.83
2022-08-20T06:38:46.685Z,24.97
2022-08-20T06:41:13.347Z,24.92
2022-08-20T06:43:40.052Z,24.84
2022-08-20T06:46:06.967Z,24.68
2022-08-20T06:48:33.491Z,24.52
2022-08-20T06:50:59.923Z,24.16
2022-08-20T06:53:26.382Z,24.30
2022-08-20T06:55:59.222Z,24.08
2022-08-20T06:58:37.001Z,23.89
2022-08-20T07:01:09.606Z,24.10
2022-08-20T07:03:38.312Z,24.19
2022-08-20T07:06:05.486Z,24.35
2022-08-20T07:08:31.940Z,24.63
2022-08-20T07:10:59.508Z,24.72
2022-08-20T07:13:25.971Z,24.55
2022-08-20T07:15:54.171Z,25.05
2022-08-20T07:18:28.054Z,25.28
2022-08-20T07:20:57.089Z,25.44
2022-08-20T07:23:24.997Z,25.43
2022-08-20T07:25:51.597Z,25.44
2022-08-20T07:28:21.180Z,25.23
2022-08-20T07:31:13.547Z,25.50
2022-08-20T07:33:44.575Z,25.34
2022-08-20T07:36:12.137Z,25.39
2022-08-20T07:38:38.726Z,25.51
2022-08-20T07:41:10.103Z,25.07
2022-08-20T07:43:36.733Z,25.04
2022-08-20T07:46:08.812Z,25.06
2022-08-20T07:48:39.879Z,24.79
2022-08-20T07:51:08.782Z,24.99
2022-08-20T07:53:37.394Z,25.00
2022-08-20T07:56:06.002Z,25.45
2022-08-20T07:58:33.135Z,25.25
2022-08-20T08:01:00.172Z,25.23
2022-08-20T08:03:40.817Z,24.97
2022-08-20T08:06:14.720Z,25.28
2022-08-20T08:08:43.876Z,25.66
2022-08-20T08:11:11.220Z,25.70
2022-08-20T08:13:40.732Z,25.69
2022-08-20T08:16:08.630Z,25.63
2022-08-20T08:18:45.528Z,25.61
2022-08-20T08:21:13.074Z,25.59
2022-08-20T08:23:44.546Z,25.39
2022-08-20T08:26:15.930Z,25.30
2022-08-20T08:28:45.346Z,25.41
2022-08-20T08:31:12.222Z,25.50
2022-08-20T08:33:40.639Z,25.43
2022-08-20T08:36:15.659Z,25.51
2022-08-20T08:38:44.745Z,25.44
2022-08-20T08:41:14.257Z,25.48
2022-08-20T08:43:40.779Z,25.01
2022-08-20T08:46:10.524Z,25.00
2022-08-20T08:48:46.058Z,24.90
2022-08-20T08:51:16.918Z,24.70
2022-08-20T08:53:53.425Z,24.88
2022-08-20T08:56:20.910Z,24.95
2022-08-20T08:58:47.700Z,25.00
2022-08-20T09:01:55.540Z,25.00
2022-08-20T09:04:06.002Z,25.52
2022-08-20T09:06:32.849Z,25.95
2022-08-20T09:09:01.872Z,26.24
2022-08-20T09:11:29.390Z,26.38
2022-08-20T09:13:56.218Z,26.75
2022-08-20T09:16:28.060Z,26.84
2022-08-20T09:19:04.502Z,26.85
2022-08-20T09:21:30.957Z,26.73
2022-08-20T09:23:57.394Z,26.82
2022-08-20T09:26:23.844Z,26.31
2022-08-20T09:28:55.855Z,26.48
2022-08-20T09:31:24.255Z,26.73
2022-08-20T09:33:51.723Z,26.95
2022-08-20T09:36:29.132Z,27.14
2022-08-20T09:38:59.437Z,27.25
2022-08-20T09:41:25.870Z,27.80
2022-08-20T09:43:52.324Z,27.75
2022-08-20T09:46:18.791Z,27.70
2022-08-20T09:48:45.263Z,28.02
2022-08-20T09:51:11.729Z,27.82
2022-08-20T09:53:38.183Z,27.49
2022-08-20T09:56:04.730Z,27.73
2022-08-20T09:58:38.257Z,28.01
2022-08-20T10:01:14.143Z,28.40
2022-08-20T10:03:45.268Z,28.08
2022-08-20T10:06:14.657Z,27.71
2022-08-20T10:08:41.277Z,28.03
2022-08-20T10:11:07.778Z,28.02
2022-08-20T10:13:34.237Z,27.21
2022-08-20T10:16:00.738Z,27.30
2022-08-20T10:18:27.301Z,27.95
2022-08-20T10:20:53.858Z,28.08
2022-08-20T10:23:20.421Z,27.58
2022-08-20T10:25:47.065Z,27.42
2022-08-20T10:28:13.496Z,27.62
2022-08-20T10:30:39.999Z,27.83
2022-08-20T10:33:06.549Z,27.66
2022-08-20T10:35:33.183Z,27.54
2022-08-20T10:37:59.593Z,27.63
2022-08-20T10:40:26.152Z,27.83
2022-08-20T10:42:52.608Z,28.11
2022-08-20T10:45:19.086Z,28.44
2022-08-20T10:47:45.619Z,28.12
2022-08-20T10:50:16.062Z,28.03
2022-08-20T10:52:42.793Z,27.46
2022-08-20T10:55:09.474Z,27.64
2022-08-20T10:57:38.315Z,27.85
2022-08-20T11:00:07.209Z,27.34
2022-08-20T11:02:33.657Z,27.39
2022-08-20T11:05:00.151Z,27.79
2022-08-20T11:07:50.447Z,27.77
2022-08-20T11:10:17.376Z,27.98
2022-08-20T11:12:45.529Z,28.08
2022-08-20T11:15:13.265Z,27.86
2022-08-20T11:17:41.953Z,28.31
2022-08-20T11:20:10.553Z,28.42
2022-08-20T11:22:37.107Z,27.56
2022-08-20T11:25:05.592Z,27.55
2022-08-20T11:27:35.049Z,27.98
2022-08-20T11:30:02.120Z,28.35
2022-08-20T11:32:28.668Z,28.92
2022-08-20T11:34:55.152Z,28.83
2022-08-20T11:37:24.366Z,28.85
2022-08-20T11:39:51.719Z,28.60
2022-08-20T11:42:18.525Z,28.36
2022-08-20T11:44:45.044Z,27.94
2022-08-20T11:47:25.417Z,27.45
2022-08-20T11:50:09.324Z,27.80
2022-08-20T11:52:35.982Z,28.55
2022-08-20T11:55:02.699Z,28.61
2022-08-20T11:57:31.795Z,28.79
2022-08-20T11:59:59.801Z,28.88
2022-08-20T12:02:27.170Z,28.94
2022-08-20T12:04:56.434Z,28.96
2022-08-20T12:07:24.728Z,28.93
2022-08-20T12:09:51.523Z,28.77
2022-08-20T12:12:20.431Z,28.89
2022-08-20T12:14:47.085Z,29.35
2022-08-20T12:17:23.473Z,29.43
2022-08-20T12:19:51.794Z,29.60
2022-08-20T12:22:25.359Z,29.02
2022-08-20T12:24:53.506Z,29.09
2022-08-20T12:27:31.160Z,29.48
2022-08-20T12:30:00.061Z,29.28
2022-08-20T12:32:28.457Z,28.90
2022-08-20T12:34:54.981Z,28.48
2022-08-20T12:37:24.693Z,28.96
2022-08-20T12:39:53.667Z,28.95
2022-08-20T12:42:20.877Z,29.74
2022-08-20T12:44:47.728Z,29.79
2022-08-20T12:47:20.319Z,30.03
2022-08-20T12:49:51.438Z,30.01
2022-08-20T12:52:19.885Z,29.16
2022-08-20T12:54:46.519Z,28.69
2022-08-20T12:57:22.717Z,28.37
2022-08-20T12:59:49.518Z,28.29
2022-08-20T13:02:19.028Z,27.99
2022-08-20T13:04:45.637Z,28.84
2022-08-20T13:07:13.037Z,29.12
2022-08-20T13:09:40.318Z,29.63
2022-08-20T13:12:07.483Z,29.43
2022-08-20T13:14:34.434Z,29.35
2022-08-20T13:17:01.491Z,28.75
2022-08-20T13:19:29.187Z,28.03
2022-08-20T13:21:55.950Z,27.65
2022-08-20T13:24:23.082Z,28.10
2022-08-20T13:26:50.439Z,28.14
2022-08-20T13:29:17.989Z,27.76
2022-08-20T13:31:44.746Z,27.66
2022-08-20T13:34:11.361Z,28.37
2022-08-20T13:36:38.145Z,28.48
2022-08-20T13:39:06.398Z,28.58
2022-08-20T13:41:33.745Z,28.69
2022-08-20T13:44:00.210Z,28.68
2022-08-20T13:46:26.748Z,28.15
2022-08-20T13:48:53.308Z,28.58
2022-08-20T13:51:19.781Z,29.10
2022-08-20T13:53:48.225Z,29.32
2022-08-20T13:56:14.713Z,28.69
2022-08-20T13:58:41.184Z,28.18
2022-08-20T14:01:07.779Z,28.47
2022-08-20T14:03:35.096Z,28.72
2022-08-20T14:06:03.137Z,28.32
2022-08-20T14:08:29.806Z,28.24
2022-08-20T14:10:56.372Z,28.28
2022-08-20T14:13:24.897Z,28.48
2022-08-20T14:15:51.906Z,29.16
2022-08-20T14:18:18.885Z,29.06
2022-08-20T14:20:45.814Z,29.17
2022-08-20T14:23:12.766Z,29.58
2022-08-20T14:25:39.222Z,29.97
2022-08-20T14:28:18.164Z,29.86
2022-08-20T14:30:45.536Z,29.93
2022-08-20T14:33:15.318Z,29.85
2022-08-20T14:35:42.043Z,29.74
2022-08-20T14:38:08.781Z,30.06
2022-08-20T14:40:36.247Z,30.02
2022-08-20T14:43:03.306Z,29.15
2022-08-20T14:45:29.878Z,29.41
2022-08-20T14:47:57.768Z,29.61
2022-08-20T14:50:30.184Z,28.98
2022-08-20T14:52:57.087Z,29.05
2022-08-20T14:55:26.713Z,29.21
2022-08-20T14:57:53.395Z,28.88
2022-08-20T15:00:23.282Z,29.15
2022-08-20T15:02:49.915Z,29.55
2022-08-20T15:05:16.908Z,29.94
2022-08-20T15:07:46.529Z,29.95
2022-08-20T15:10:26.813Z,29.60
2022-08-20T15:12:53.737Z,29.42
2022-08-20T15:15:20.959Z,28.90
2022-08-20T15:17:53.597Z,28.91
2022-08-20T15:20:22.933Z,29.17
2022-08-20T15:22:50.340Z,29.41
2022-08-20T15:25:20.588Z,28.83
2022-08-20T15:27:47.543Z,28.62
2022-08-20T15:30:18.227Z,28.51
2022-08-20T15:32:45.309Z,28.39
2022-08-20T15:35:13.282Z,28.16
2022-08-20T15:37:42.649Z,27.21
2022-08-20T15:40:10.349Z,27.35
2022-08-20T15:42:37.367Z,27.56
2022-08-20T15:45:05.255Z,27.83
2022-08-20T15:47:38.027Z,27.81
2022-08-20T15:50:13.990Z,28.14
2022-08-20T15:52:43.178Z,28.50
2022-08-20T15:55:12.793Z,28.52
2022-08-20T15:57:54.456Z,28.62
2022-08-20T16:00:23.598Z,28.55
2022-08-20T16:03:28.962Z,28.58
2022-08-20T16:06:17.015Z,27.22
2022-08-20T16:09:08.532Z,27.28
2022-08-20T16:11:59.147Z,26.99
2022-08-20T16:14:29.284Z,26.91
2022-08-20T16:17:05.858Z,26.99
2022-08-20T16:20:00.157Z,27.22
2022-08-20T16:22:31.653Z,27.67
2022-08-20T16:24:58.186Z,27.93
2022-08-20T16:27:45.978Z,28.58
2022-08-20T16:30:21.415Z,28.35
2022-08-20T16:32:54.756Z,28.53
2022-08-20T16:35:35.464Z,28.39
2022-08-20T16:38:13.980Z,27.37
2022-08-20T16:41:02.381Z,26.71
2022-08-20T16:43:34.063Z,26.55
2022-08-20T16:46:05.983Z,26.87
2022-08-20T16:48:38.100Z,26.78
2022-08-20T16:51:14.672Z,26.76
2022-08-20T16:53:41.113Z,26.49
2022-08-20T16:56:07.765Z,26.34
2022-08-20T16:58:34.246Z,26.43
2022-08-20T17:01:25.611Z,26.28
2022-08-20T17:03:52.062Z,26.10
2022-08-20T17:06:33.031Z,25.91
2022-08-20T17:09:11.706Z,25.70
2022-08-20T17:11:39.064Z,25.86
2022-08-20T17:14:14.838Z,25.90
2022-08-20T17:16:47.588Z,25.76
2022-08-20T17:19:28.028Z,25.94
2022-08-20T17:21:55.441Z,25.58
2022-08-20T17:24:30.872Z,25.85
2022-08-20T17:27:10.253Z,26.00
2022-08-20T17:29:49.273Z,25.68
2022-08-20T17:32:28.891Z,25.79
2022-08-20T17:34:58.373Z,25.77
2022-08-20T17:37:37.438Z,25.62
2022-08-20T17:40:24.772Z,25.65
2022-08-20T17:42:58.442Z,25.52
2022-08-20T17:45:35.727Z,24.80
2022-08-20T17:48:03.933Z,24.97
2022-08-20T17:50:34.039Z,24.90
2022-08-20T17:53:11.000Z,24.82
2022-08-20T17:55:37.902Z,24.65
2022-08-20T17:58:06.915Z,24.63
2022-08-20T18:00:33.593Z,24.79
2022-08-20T18:03:05.968Z,24.75
2022-08-20T18:05:34.755Z,24.71
2022-08-20T18:08:08.624Z,24.68
2022-08-20T18:10:42.990Z,24.60
2022-08-20T18:13:19.327Z,24.57
2022-08-20T18:15:57.889Z,24.44
2022-08-20T18:18:24.534Z,24.53
2022-08-20T18:21:21.631Z,24.66
2022-08-20T18:23:54.120Z,24.43
2022-08-20T18:26:34.354Z,24.30
2022-08-20T18:29:16.852Z,24.28
2022-08-20T18:31:59.456Z,24.16
2022-08-20T18:34:28.784Z,24.10
2022-08-20T18:37:03.166Z,23.95
2022-08-20T18:39:32.127Z,23.94
2022-08-20T18:42:02.805Z,23.93
2022-08-20T18:44:37.589Z,23.85
2022-08-20T18:47:06.449Z,23.66
2022-08-20T18:49:39.326Z,23.72
2022-08-20T18:52:15.670Z,23.74
2022-08-20T18:54:54.041Z,23.67
2022-08-20T18:57:24.857Z,23.77
2022-08-20T19:00:02.246Z,23.64
2022-08-20T19:02:34.556Z,23.59
2022-08-20T19:05:05.870Z,23.41
2022-08-20T19:07:48.340Z,23.32
2022-08-20T19:10:48.368Z,23.19
2022-08-20T19:13:26.588Z,23.27
2022-08-20T19:15:58.726Z,23.34
2022-08-20T19:18:38.989Z,23.16
2022-08-20T19:21:05.957Z,23.09
2022-08-20T19:23:48.067Z,23.14
2022-08-20T19:26:24.813Z,23.16
2022-08-20T19:28:58.153Z,23.16
2022-08-20T19:31:27.203Z,23.18
2022-08-20T19:34:19.968Z,23.02
2022-08-20T19:37:10.099Z,22.73
2022-08-20T19:39:50.869Z,22.68
2022-08-20T19:42:22.882Z,22.87
2022-08-20T19:45:03.921Z,22.83
2022-08-20T19:47:34.622Z,22.76
2022-08-20T19:50:17.882Z,22.74
2022-08-20T19:53:03.166Z,22.84
2022-08-20T19:55:33.137Z,22.89
2022-08-20T19:58:02.530Z,22.88
2022-08-20T20:00:32.591Z,22.84
2022-08-20T20:03:08.876Z,22.82
2022-08-20T20:05:35.320Z,22.70
2022-08-20T20:08:03.369Z,22.63
2022-08-20T20:10:34.027Z,22.51
2022-08-20T20:13:09.255Z,22.63
2022-08-20T20:15:37.535Z,22.54
2022-08-20T20:18:04.687Z,22.50
2022-08-20T20:20:34.855Z,22.51
2022-08-20T20:23:13.537Z,22.52
2022-08-20T20:25:45.348Z,22.42
2022-08-20T20:28:13.648Z,22.32
2022-08-20T20:30:41.061Z,22.45
2022-08-20T20:33:16.975Z,22.47
2022-08-20T20:35:43.951Z,22.38
2022-08-20T20:38:16.981Z,22.37
2022-08-20T20:40:50.023Z,22.29
2022-08-20T20:43:37.452Z,22.17
2022-08-20T20:46:06.965Z,22.13
2022-08-20T20:48:49.699Z,22.09
2022-08-20T20:51:23.306Z,22.05
2022-08-20T20:53:54.626Z,21.88
2022-08-20T20:56:29.183Z,21.68
2022-08-20T20:58:56.370Z,21.52
2022-08-20T21:01:34.513Z,21.42
2022-08-20T21:04:09.675Z,21.38
2022-08-20T21:06:36.225Z,21.53
2022-08-20T21:09:02.863Z,21.55
2022-08-20T21:11:29.331Z,21.50
2022-08-20T21:13:55.806Z,21.43
2022-08-20T21:16:22.416Z,21.32
2022-08-20T21:18:48.904Z,21.25
2022-08-20T21:21:16.115Z,21.11
2022-08-20T21:23:42.606Z,21.09
2022-08-20T21:26:09.163Z,21.12
2022-08-20T21:28:35.901Z,21.03
2022-08-20T21:31:02.787Z,20.95
2022-08-20T21:33:29.297Z,20.86
2022-08-20T21:35:56.811Z,20.79
2022-08-20T21:38:23.776Z,20.72
2022-08-20T21:40:50.384Z,20.68
2022-08-20T21:43:17.165Z,20.62
2022-08-20T21:45:45.333Z,20.61
2022-08-20T21:48:16.163Z,20.58
2022-08-20T21:50:43.540Z,20.51
2022-08-20T21:53:12.346Z,20.52
2022-08-20T21:55:40.045Z,20.46
2022-08-20T21:58:07.042Z,20.37
2022-08-20T22:01:00.659Z,20.31
2022-08-20T22:03:29.767Z,20.31
2022-08-20T22:05:58.093Z,20.26
2022-08-20T22:08:26.124Z,20.25
2022-08-20T22:10:54.954Z,20.12
2022-08-20T22:13:22.511Z,20.03
2022-08-20T22:15:48.982Z,20.11
2022-08-20T22:18:16.330Z,20.10
2022-08-20T22:20:43.569Z,20.08
2022-08-20T22:23:10.573Z,20.07
2022-08-20T22:25:37.203Z,20.04
2022-08-20T22:28:04.025Z,19.99
2022-08-20T22:30:31.344Z,20.03
2022-08-20T22:33:06.190Z,20.00
2022-08-20T22:35:34.052Z,19.99
2022-08-20T22:38:01.280Z,19.81
2022-08-20T22:40:27.696Z,19.76
2022-08-20T22:42:54.250Z,19.74
2022-08-20T22:45:20.804Z,19.79
2022-08-20T22:47:47.437Z,19.77
2022-08-20T22:50:14.599Z,19.71
2022-08-20T22:52:43.422Z,19.70
2022-08-20T22:55:09.961Z,19.70
2022-08-20T22:57:37.334Z,19.64
2022-08-20T23:00:08.650Z,19.53
2022-08-20T23:02:35.325Z,19.45
2022-08-20T23:05:02.209Z,19.43
2022-08-20T23:07:28.670Z,19.36
2022-08-20T23:09:55.139Z,19.30
2022-08-20T23:12:21.854Z,19.35
2022-08-20T23:14:48.355Z,19.34
2022-08-20T23:17:17.957Z,19.47
2022-08-20T23:19:46.300Z,19.41
2022-08-20T23:22:12.989Z,19.35
2022-08-20T23:24:39.804Z,19.41
2022-08-20T23:27:07.353Z,19.45
2022-08-20T23:29:33.954Z,19.38
2022-08-20T23:32:00.508Z,19.32
2022-08-20T23:34:27.343Z,19.35
2022-08-20T23:36:56.074Z,19.39
2022-08-20T23:39:23.688Z,19.34
2022-08-20T23:41:50.351Z,19.27
2022-08-20T23:44:25.867Z,19.28
2022-08-20T23:46:55.237Z,19.20
2022-08-20T23:49:21.687Z,19.19
2022-08-20T23:51:48.239Z,19.14
2022-08-20T23:54:14.794Z,19.08
2022-08-20T23:56:41.214Z,19.10
2022-08-20T23:59:07.654Z,19.02
